createdAt,value
2022-11-12T00:05:00.460Z,52.09
2022-11-12T00:10:23.300Z,52.09
2022-11-12T00:15:46.729Z,52.06
2022-11-12T00:21:08.585Z,51.96
2022-11-12T00:26:30.555Z,51.78
2022-11-12T00:31:52.226Z,51.65
2022-11-12T00:37:14.696Z,52.15
2022-11-12T00:42:37.040Z,51.72
2022-11-12T00:47:58.533Z,51.84
2022-11-12T00:53:20.202Z,51.75
2022-11-12T00:58:42.655Z,51.64
2022-11-12T01:04:04.379Z,51.63
2022-11-12T01:09:26.145Z,51.46
2022-11-12T01:14:48.379Z,51.22
2022-11-12T01:20:10.676Z,51.33
2022-11-12T01:25:32.712Z,51.88
2022-11-12T01:30:54.528Z,51.59
2022-11-12T01:36:18.462Z,51.43
2022-11-12T01:41:42.048Z,51.45
2022-11-12T01:47:29.220Z,51.47
2022-11-12T01:52:56.893Z,51.11
2022-11-12T01:58:22.450Z,51.14
2022-11-12T02:03:44.873Z,51.07
2022-11-12T02:09:07.568Z,51.27
2022-11-12T02:14:30.186Z,51.13
2022-11-12T02:19:53.344Z,51.13
2022-11-12T02:25:21.277Z,50.96
2022-11-12T02:30:46.251Z,50.80
2022-11-12T02:36:09.144Z,50.82
2022-11-12T02:41:30.812Z,50.90
2022-11-12T02:46:52.601Z,50.58
2022-11-12T02:52:14.952Z,51.06
2022-11-12T02:57:39.607Z,50.87
2022-11-12T03:03:04.025Z,51.59
2022-11-12T03:08:28.765Z,51.20
2022-11-12T03:13:51.126Z,51.18
2022-11-12T03:19:13.450Z,50.95
2022-11-12T03:24:35.702Z,51.29
2022-11-12T03:29:57.521Z,51.06
2022-11-12T03:35:19.617Z,51.04
2022-11-12T03:40:41.393Z,51.21
2022-11-12T03:46:02.971Z,51.29
2022-11-12T03:51:25.121Z,51.20
2022-11-12T03:56:47.449Z,51.11
2022-11-12T04:02:09.277Z,51.20
2022-11-12T04:07:32.147Z,51.14
2022-11-12T04:12:54.853Z,51.24
2022-11-12T04:18:16.579Z,51.14
2022-11-12T04:23:40.755Z,51.14
2022-11-12T04:29:02.751Z,50.99
2022-11-12T04:34:24.209Z,51.12
2022-11-12T04:39:45.989Z,51.03
2022-11-12T04:45:11.377Z,51.07
2022-11-12T04:50:32.913Z,50.87
2022-11-12T04:56:00.709Z,50.87
2022-11-12T05:01:22.499Z,51.02
2022-11-12T05:06:44.419Z,50.94
2022-11-12T05:12:07.036Z,50.59
2022-11-12T05:17:29.270Z,50.75
2022-11-12T05:23:05.565Z,50.81
2022-11-12T05:28:28.630Z,50.59
2022-11-12T05:33:50.881Z,50.64
2022-11-12T05:39:12.610Z,50.64
2022-11-12T05:44:35.211Z,50.27
2022-11-12T05:49:59.550Z,49.93
2022-11-12T05:55:21.960Z,49.14
2022-11-12T06:00:43.822Z,47.90
2022-11-12T06:06:05.715Z,47.52
2022-11-12T06:11:27.718Z,47.60
2022-11-12T06:16:50.386Z,48.37
2022-11-12T06:22:12.414Z,49.13
2022-11-12T06:27:34.073Z,49.43
2022-11-12T06:32:55.645Z,49.76
2022-11-12T06:38:17.349Z,49.49
2022-11-12T06:43:40.373Z,49.05
2022-11-12T06:49:01.808Z,47.92
2022-11-12T06:54:23.753Z,47.94
2022-11-12T06:59:45.119Z,47.94
2022-11-12T07:05:08.027Z,47.89
2022-11-12T07:10:29.570Z,48.30
2022-11-12T07:15:51.750Z,48.55
2022-11-12T07:21:17.321Z,48.41
2022-11-12T07:26:43.231Z,48.43
2022-11-12T07:32:09.158Z,48.44
2022-11-12T07:37:31.209Z,48.20
2022-11-12T07:42:53.121Z,48.22
2022-11-12T07:48:14.752Z,48.01
2022-11-12T07:55:58.845Z,47.79
2022-11-12T08:01:29.367Z,47.49
2022-11-12T08:06:51.696Z,47.19
2022-11-12T08:12:13.992Z,47.21
2022-11-12T08:17:39.406Z,46.79
2022-11-12T08:23:01.432Z,46.39
2022-11-12T08:28:23.590Z,46.29
2022-11-12T08:33:45.818Z,46.15
2022-11-12T08:39:08.846Z,46.02
2022-11-12T08:44:31.613Z,45.76
2022-11-12T08:49:53.774Z,45.58
2022-11-12T08:55:15.426Z,45.38
2022-11-12T09:00:40.938Z,45.23
2022-11-12T09:06:04.552Z,45.14
2022-11-12T09:11:26.669Z,45.06
2022-11-12T09:16:49.150Z,45.47
2022-11-12T09:22:10.428Z,45.04
2022-11-12T09:27:32.028Z,44.67
2022-11-12T09:33:00.119Z,44.72
2022-11-12T09:38:22.334Z,44.55
2022-11-12T09:43:53.704Z,44.41
2022-11-12T09:49:24.199Z,44.20
2022-11-12T09:54:50.797Z,44.14
2022-11-12T10:00:20.286Z,43.96
2022-11-12T10:05:54.735Z,43.77
2022-11-12T10:11:48.567Z,43.49
2022-11-12T10:17:50.832Z,43.47
2022-11-12T10:23:43.837Z,43.33
2022-11-12T10:29:11.184Z,42.93
2022-11-12T10:34:33.244Z,43.05
2022-11-12T10:39:56.294Z,42.94
2022-11-12T10:45:22.292Z,42.97
2022-11-12T10:50:43.852Z,42.93
2022-11-12T10:56:24.969Z,43.18
2022-11-12T11:01:55.457Z,42.75
2022-11-12T11:07:25.768Z,42.36
2022-11-12T11:12:47.988Z,42.24
2022-11-12T11:18:14.464Z,42.37
2022-11-12T11:23:46.686Z,42.08
2022-11-12T11:29:30.990Z,42.16
2022-11-12T11:35:09.861Z,42.28
2022-11-12T11:41:05.392Z,42.00
2022-11-12T11:46:40.094Z,41.96
2022-11-12T11:52:40.264Z,41.91
2022-11-12T11:58:17.087Z,41.95
2022-11-12T12:04:05.485Z,42.13
2022-11-12T12:09:44.688Z,41.95
2022-11-12T12:15:09.818Z,41.77
2022-11-12T12:20:43.117Z,41.91
2022-11-12T12:26:14.294Z,41.76
2022-11-12T12:31:43.761Z,41.77
2022-11-12T12:37:41.817Z,41.68
2022-11-12T12:43:13.429Z,42.00
2022-11-12T12:48:40.834Z,41.77
2022-11-12T12:54:03.070Z,41.76
2022-11-12T12:59:24.995Z,41.67
2022-11-12T13:04:56.608Z,41.66
2022-11-12T13:10:37.205Z,41.96
2022-11-12T13:16:00.983Z,42.00
2022-11-12T13:21:22.939Z,42.66
2022-11-12T13:26:59.489Z,44.00
2022-11-12T13:32:43.913Z,45.46
2022-11-12T13:38:08.380Z,46.03
2022-11-12T13:43:42.458Z,46.74
2022-11-12T13:49:13.114Z,47.65
2022-11-12T13:54:39.125Z,48.44
2022-11-12T14:00:28.955Z,49.16
2022-11-12T14:05:51.549Z,50.11
2022-11-12T14:11:38.414Z,50.48
2022-11-12T14:17:27.996Z,50.93
2022-11-12T14:22:50.566Z,51.67
2022-11-12T14:28:27.897Z,51.87
2022-11-12T14:33:50.220Z,52.47
2022-11-12T14:39:14.350Z,52.53
2022-11-12T14:44:38.208Z,52.72
2022-11-12T14:50:00.176Z,52.92
2022-11-12T14:55:29.617Z,53.10
2022-11-12T15:00:53.830Z,53.40
2022-11-12T15:06:22.127Z,53.93
2022-11-12T15:11:47.232Z,53.50
2022-11-12T15:17:26.903Z,53.64
2022-11-12T15:22:53.068Z,53.81
2022-11-12T15:28:23.409Z,53.67
2022-11-12T15:33:45.290Z,53.92
2022-11-12T15:39:14.487Z,54.19
2022-11-12T15:44:37.489Z,54.47
2022-11-12T15:49:59.967Z,55.21
2022-11-12T15:55:21.846Z,55.35
2022-11-12T16:00:44.177Z,54.88
2022-11-12T16:06:09.184Z,55.57
2022-11-12T16:11:31.625Z,56.27
2022-11-12T16:16:54.085Z,55.70
2022-11-12T16:22:16.164Z,56.71
2022-11-12T16:27:39.132Z,56.68
2022-11-12T16:33:01.455Z,57.61
2022-11-12T16:38:23.346Z,57.06
2022-11-12T16:43:45.483Z,56.83
2022-11-12T16:49:12.494Z,57.36
2022-11-12T16:54:36.463Z,57.78
2022-11-12T16:59:58.330Z,58.17
2022-11-12T17:05:22.765Z,58.41
2022-11-12T17:10:44.770Z,58.44
2022-11-12T17:16:07.725Z,58.42
2022-11-12T17:21:30.711Z,58.27
2022-11-12T17:26:53.306Z,58.01
2022-11-12T17:32:15.411Z,57.49
2022-11-12T17:37:37.479Z,57.00
2022-11-12T17:42:59.591Z,56.90
2022-11-12T17:48:21.835Z,56.25
2022-11-12T17:53:43.924Z,56.32
2022-11-12T17:59:05.643Z,55.89
2022-11-12T18:04:30.739Z,55.21
2022-11-12T18:09:53.981Z,54.53
2022-11-12T18:15:16.830Z,53.69
2022-11-12T18:20:42.790Z,53.08
2022-11-12T18:26:04.529Z,52.71
2022-11-12T18:31:29.696Z,52.11
2022-11-12T18:36:51.744Z,51.77
2022-11-12T18:42:13.318Z,51.69
2022-11-12T18:47:34.617Z,50.94
2022-11-12T18:52:57.018Z,50.61
2022-11-12T18:58:19.144Z,50.53
2022-11-12T19:03:40.570Z,50.19
2022-11-12T19:09:03.693Z,49.81
2022-11-12T19:14:25.882Z,49.49
2022-11-12T19:19:48.053Z,49.21
2022-11-12T19:25:10.130Z,48.95
2022-11-12T19:30:32.703Z,48.76
2022-11-12T19:35:54.494Z,48.81
2022-11-12T19:41:20.115Z,48.47
2022-11-12T19:46:42.413Z,48.09
2022-11-12T19:52:07.165Z,47.83
2022-11-12T19:57:29.480Z,48.03
2022-11-12T20:02:51.819Z,47.93
2022-11-12T20:08:13.899Z,47.82
2022-11-12T20:13:35.965Z,47.81
2022-11-12T20:18:58.286Z,47.75
2022-11-12T20:24:21.257Z,47.90
2022-11-12T20:29:43.862Z,47.73
2022-11-12T20:35:15.250Z,47.82
2022-11-12T20:40:41.143Z,47.63
2022-11-12T20:46:03.217Z,47.61
2022-11-12T20:51:26.917Z,47.36
2022-11-12T20:56:49.152Z,47.09
2022-11-12T21:02:11.962Z,47.08
2022-11-12T21:07:33.936Z,47.02
2022-11-12T21:12:55.978Z,47.18
2022-11-12T21:18:18.894Z,46.88
2022-11-12T21:23:42.670Z,46.83
2022-11-12T21:29:04.836Z,46.63
2022-11-12T21:34:26.641Z,46.62
2022-11-12T21:39:49.059Z,46.50
2022-11-12T21:45:11.997Z,46.37
2022-11-12T21:50:37.868Z,46.24
2022-11-12T21:56:21.349Z,46.22
2022-11-12T22:01:42.769Z,46.04
2022-11-12T22:07:05.460Z,45.75
2022-11-12T22:12:27.078Z,45.84
2022-11-12T22:17:48.656Z,45.62
2022-11-12T22:23:10.126Z,45.49
2022-11-12T22:28:32.450Z,45.58
2022-11-12T22:33:55.346Z,45.41
2022-11-12T22:39:17.278Z,45.45
2022-11-12T22:44:39.309Z,45.24
2022-11-12T22:50:01.327Z,45.36
2022-11-12T22:55:23.452Z,45.47
2022-11-12T23:00:46.840Z,45.37
2022-11-12T23:06:08.890Z,45.70
2022-11-12T23:11:36.210Z,45.36
2022-11-12T23:17:02.254Z,45.29
2022-11-12T23:22:24.608Z,45.16
2022-11-12T23:27:46.377Z,45.17
2022-11-12T23:33:08.926Z,45.08
2022-11-12T23:38:32.201Z,45.18
2022-11-12T23:43:55.976Z,44.78
2022-11-12T23:49:17.578Z,44.88
2022-11-12T23:54:39.525Z,44.97
